createdAt,value
2022-12-05T00:01:54.329Z,98.78
2022-12-05T00:06:55.449Z,98.78
2022-12-05T00:11:57.817Z,98.57
2022-12-05T00:16:57.050Z,98.72
2022-12-05T00:21:58.164Z,98.61
2022-12-05T00:26:58.352Z,99.13
2022-12-05T00:32:00.607Z,98.82
2022-12-05T00:37:00.742Z,98.72
2022-12-05T00:41:59.909Z,98.10
2022-12-05T00:47:01.113Z,98.05
2022-12-05T00:52:02.246Z,96.60
2022-12-05T00:57:03.337Z,96.50
2022-12-05T01:02:05.460Z,95.87
2022-12-05T01:07:04.592Z,95.04
2022-12-05T01:12:05.695Z,95.46
2022-12-05T01:17:06.916Z,94.84
2022-12-05T01:22:08.051Z,94.98
2022-12-05T01:27:09.204Z,95.29
2022-12-05T01:32:10.440Z,95.81
2022-12-05T01:37:11.593Z,95.46
2022-12-05T01:42:12.741Z,95.25
2022-12-05T01:47:15.842Z,94.58
2022-12-05T01:52:14.935Z,94.06
2022-12-05T01:57:16.074Z,93.65
2022-12-05T02:02:17.286Z,93.44
2022-12-05T02:07:18.478Z,94.27
2022-12-05T02:12:20.552Z,93.75
2022-12-05T02:17:19.734Z,94.06
2022-12-05T02:22:19.915Z,95.20
2022-12-05T02:27:21.057Z,95.51
2022-12-05T02:32:22.165Z,95.20
2022-12-05T02:37:23.332Z,94.89
2022-12-05T02:42:24.521Z,94.58
2022-12-05T02:47:25.671Z,94.64
2022-12-05T02:52:26.826Z,95.46
2022-12-05T02:57:27.989Z,97.78
2022-12-05T03:02:29.124Z,97.64
2022-12-05T03:07:30.290Z,96.81
2022-12-05T03:12:31.409Z,96.86
2022-12-05T03:17:32.526Z,96.76
2022-12-05T03:22:33.684Z,97.07
2022-12-05T03:27:34.810Z,96.66
2022-12-05T03:32:35.958Z,97.12
2022-12-05T03:37:37.148Z,96.55
2022-12-05T03:42:38.306Z,96.81
2022-12-05T03:47:39.474Z,97.22
2022-12-05T03:53:03.656Z,96.91
2022-12-05T03:57:40.897Z,96.81
2022-12-05T04:02:42.038Z,98.10
2022-12-05T04:07:43.180Z,99.49
2022-12-05T04:12:44.289Z,99.70
2022-12-05T04:17:50.477Z,99.70
2022-12-05T04:22:45.461Z,99.18
2022-12-05T04:27:46.613Z,99.13
2022-12-05T04:32:47.753Z,98.82
2022-12-05T04:37:48.863Z,98.26
2022-12-05T04:42:50.968Z,98.72
2022-12-05T04:47:50.122Z,99.28
2022-12-05T04:52:51.282Z,99.38
2022-12-05T04:57:52.429Z,99.13
2022-12-05T05:02:53.686Z,99.65
2022-12-05T05:07:54.910Z,99.34
2022-12-05T05:12:56.086Z,99.44
2022-12-05T05:17:57.217Z,99.30
2022-12-05T05:22:58.357Z,99.96
2022-12-05T05:28:00.445Z,99.99
2022-12-05T05:33:00.564Z,99.99
2022-12-05T05:38:00.705Z,99.99
2022-12-05T05:42:59.830Z,99.71
2022-12-05T05:48:00.990Z,99.99
2022-12-05T05:53:02.124Z,99.99
2022-12-05T05:58:03.269Z,99.99
2022-12-05T06:03:04.549Z,99.99
2022-12-05T06:08:05.779Z,99.99
2022-12-05T06:13:06.962Z,99.99
2022-12-05T06:18:09.077Z,99.99
2022-12-05T06:23:08.173Z,99.99
2022-12-05T06:28:09.364Z,99.99
2022-12-05T06:33:10.523Z,99.99
2022-12-05T06:38:11.711Z,99.99
2022-12-05T06:43:12.857Z,99.99
2022-12-05T06:48:14.007Z,99.99
2022-12-05T06:53:15.166Z,99.99
2022-12-05T06:58:16.338Z,99.99
2022-12-05T07:03:18.418Z,99.99
2022-12-05T07:08:17.584Z,99.99
2022-12-05T07:13:19.717Z,99.99
2022-12-05T07:18:19.901Z,99.99
2022-12-05T07:23:19.038Z,99.99
2022-12-05T07:28:20.185Z,99.99
2022-12-05T07:33:21.342Z,99.61
2022-12-05T07:38:23.510Z,99.99
2022-12-05T07:43:22.647Z,99.87
2022-12-05T07:48:23.849Z,99.99
2022-12-05T07:53:26.074Z,99.99
2022-12-05T07:58:25.220Z,99.99
2022-12-05T08:03:27.406Z,98.90
2022-12-05T08:08:26.587Z,99.57
2022-12-05T08:13:27.724Z,99.88
2022-12-05T08:18:29.822Z,99.99
2022-12-05T08:23:28.977Z,99.99
2022-12-05T08:28:32.098Z,98.55
2022-12-05T08:33:31.227Z,98.03
2022-12-05T08:38:33.325Z,96.89
2022-12-05T08:43:32.425Z,98.74
2022-12-05T08:48:34.768Z,98.60
2022-12-05T08:53:38.327Z,98.60
2022-12-05T08:58:34.853Z,98.49
2022-12-05T09:03:35.969Z,98.80
2022-12-05T09:08:37.087Z,98.28
2022-12-05T09:13:38.494Z,99.99
2022-12-05T09:18:39.636Z,99.99
2022-12-05T09:23:40.801Z,99.99
2022-12-05T09:28:41.920Z,99.99
2022-12-05T09:33:43.091Z,99.99
2022-12-05T09:38:43.255Z,99.99
2022-12-05T09:43:44.415Z,99.99
2022-12-05T09:48:46.540Z,99.99
2022-12-05T09:53:45.751Z,99.99
2022-12-05T09:58:47.883Z,99.99
2022-12-05T10:03:48.030Z,99.99
2022-12-05T10:08:47.147Z,99.99
2022-12-05T10:13:48.301Z,98.86
2022-12-05T10:18:49.441Z,98.34
2022-12-05T10:23:57.503Z,98.18
2022-12-05T10:28:50.562Z,97.62
2022-12-05T10:33:50.716Z,97.00
2022-12-05T10:38:52.835Z,96.27
2022-12-05T10:43:51.980Z,96.27
2022-12-05T10:48:53.147Z,96.12
2022-12-05T10:53:54.224Z,96.44
2022-12-05T10:58:55.646Z,94.98
2022-12-05T11:03:55.574Z,94.22
2022-12-05T11:09:05.435Z,93.18
2022-12-05T11:13:56.699Z,91.07
2022-12-05T11:18:57.829Z,91.17
2022-12-05T11:23:58.978Z,92.83
2022-12-05T11:29:00.106Z,93.14
2022-12-05T11:34:02.272Z,92.52
2022-12-05T11:39:01.900Z,92.21
2022-12-05T11:44:03.027Z,91.28
2022-12-05T11:49:04.130Z,93.08
2022-12-05T11:54:05.306Z,93.60
2022-12-05T11:59:06.406Z,92.72
2022-12-05T12:04:07.532Z,91.90
2022-12-05T12:09:08.676Z,91.42
2022-12-05T12:14:09.802Z,92.77
2022-12-05T12:19:10.911Z,91.17
2022-12-05T12:24:12.079Z,90.04
2022-12-05T12:29:14.278Z,91.11
2022-12-05T12:34:13.422Z,91.01
2022-12-05T12:39:14.559Z,91.53
2022-12-05T12:44:15.693Z,91.01
2022-12-05T12:49:17.793Z,92.30
2022-12-05T12:54:25.318Z,91.99
2022-12-05T12:59:16.882Z,90.70
2022-12-05T13:04:19.015Z,89.98
2022-12-05T13:09:19.178Z,90.60
2022-12-05T13:14:18.311Z,90.80
2022-12-05T13:19:19.476Z,91.22
2022-12-05T13:24:20.613Z,90.66
2022-12-05T13:29:22.873Z,89.32
2022-12-05T13:34:23.093Z,89.11
2022-12-05T13:39:22.851Z,89.69
2022-12-05T13:44:22.953Z,90.52
2022-12-05T13:49:23.039Z,93.54
2022-12-05T13:54:22.157Z,96.58
2022-12-05T13:59:24.308Z,95.29
2022-12-05T14:04:24.472Z,92.85
2022-12-05T14:09:23.571Z,92.65
2022-12-05T14:14:25.711Z,92.81
2022-12-05T14:19:27.603Z,92.71
2022-12-05T14:24:25.790Z,91.67
2022-12-05T14:29:24.915Z,91.74
2022-12-05T14:34:26.021Z,90.35
2022-12-05T14:39:31.027Z,88.55
2022-12-05T14:44:28.116Z,88.24
2022-12-05T14:49:29.272Z,88.14
2022-12-05T14:54:32.414Z,88.59
2022-12-05T14:59:32.620Z,87.97
2022-12-05T15:04:30.818Z,87.60
2022-12-05T15:09:39.202Z,90.95
2022-12-05T15:14:31.509Z,89.36
2022-12-05T15:19:32.694Z,89.46
2022-12-05T15:24:33.852Z,89.92
2022-12-05T15:29:35.011Z,90.12
2022-12-05T15:34:36.126Z,91.16
2022-12-05T15:39:38.240Z,91.93
2022-12-05T15:44:38.527Z,92.34
2022-12-05T15:49:37.692Z,92.49
2022-12-05T15:54:38.810Z,92.34
2022-12-05T15:59:40.277Z,91.82
2022-12-05T16:04:41.407Z,91.16
2022-12-05T16:09:42.576Z,90.53
2022-12-05T16:15:00.562Z,90.33
2022-12-05T16:19:44.673Z,90.64
2022-12-05T16:24:43.831Z,90.84
2022-12-05T16:29:44.941Z,90.12
2022-12-05T16:34:46.089Z,90.08
2022-12-05T16:39:48.206Z,89.71
2022-12-05T16:44:47.390Z,89.09
2022-12-05T16:49:48.535Z,90.89
2022-12-05T16:54:49.902Z,91.82
2022-12-05T16:59:51.067Z,92.03
2022-12-05T17:04:52.437Z,92.34
2022-12-05T17:09:51.672Z,91.16
2022-12-05T17:14:52.832Z,90.53
2022-12-05T17:19:55.659Z,90.39
2022-12-05T17:24:55.501Z,89.36
2022-12-05T17:29:57.336Z,88.74
2022-12-05T17:34:57.052Z,89.81
2022-12-05T17:39:58.481Z,90.23
2022-12-05T17:44:58.253Z,90.89
2022-12-05T17:49:59.887Z,90.99
2022-12-05T17:54:57.618Z,91.86
2022-12-05T17:59:56.970Z,93.10
2022-12-05T18:04:59.300Z,93.52
2022-12-05T18:09:59.922Z,93.00
2022-12-05T18:14:59.345Z,92.90
2022-12-05T18:19:58.718Z,93.00
2022-12-05T18:25:00.433Z,93.04
2022-12-05T18:30:00.165Z,93.25
2022-12-05T18:34:59.948Z,92.84
2022-12-05T18:40:00.323Z,92.53
2022-12-05T18:45:00.073Z,92.63
2022-12-05T18:50:01.740Z,92.43
2022-12-05T18:55:16.401Z,92.53
2022-12-05T19:00:00.348Z,93.08
2022-12-05T19:05:01.443Z,93.96
2022-12-05T19:10:00.963Z,95.31
2022-12-05T19:15:02.543Z,97.68
2022-12-05T19:20:03.006Z,98.30
2022-12-05T19:25:03.164Z,97.53
2022-12-05T19:30:07.956Z,97.89
2022-12-05T19:35:02.775Z,97.99
2022-12-05T19:40:03.013Z,97.89
2022-12-05T19:45:08.327Z,98.41
2022-12-05T19:50:03.651Z,98.41
2022-12-05T19:55:02.913Z,98.41
2022-12-05T20:00:03.288Z,98.61
2022-12-05T20:05:04.744Z,99.13
2022-12-05T20:10:06.217Z,99.80
2022-12-05T20:15:05.821Z,99.24
2022-12-05T20:20:05.284Z,98.82
2022-12-05T20:25:04.605Z,98.82
2022-12-05T20:30:07.022Z,99.24
2022-12-05T20:35:06.450Z,99.13
2022-12-05T20:40:07.964Z,99.34
2022-12-05T20:45:07.432Z,99.03
2022-12-05T20:50:06.924Z,97.47
2022-12-05T20:55:06.329Z,96.97
2022-12-05T21:00:08.439Z,94.04
2022-12-05T21:05:07.727Z,92.24
2022-12-05T21:10:09.231Z,91.67
2022-12-05T21:15:08.849Z,89.96
2022-12-05T21:20:08.057Z,90.83
2022-12-05T21:25:09.237Z,91.97
2022-12-05T21:30:10.453Z,92.11
2022-12-05T21:35:11.604Z,92.47
2022-12-05T21:40:12.769Z,92.68
2022-12-05T21:45:13.928Z,91.43
2022-12-05T21:50:16.014Z,92.01
2022-12-05T21:55:16.129Z,92.11
2022-12-05T22:00:15.276Z,92.43
2022-12-05T22:05:16.427Z,93.19
2022-12-05T22:10:17.636Z,93.40
2022-12-05T22:15:19.037Z,94.06
2022-12-05T22:20:20.200Z,93.54
2022-12-05T22:25:22.320Z,93.59
2022-12-05T22:30:21.500Z,93.38
2022-12-05T22:35:22.689Z,92.97
2022-12-05T22:40:23.867Z,91.85
2022-12-05T22:45:25.065Z,91.64
2022-12-05T22:50:26.207Z,91.08
2022-12-05T22:55:27.370Z,89.94
2022-12-05T23:00:28.632Z,90.87
2022-12-05T23:05:29.783Z,91.43
2022-12-05T23:10:30.921Z,91.78
2022-12-05T23:15:32.126Z,92.10
2022-12-05T23:20:33.275Z,92.76
2022-12-05T23:25:34.447Z,93.18
2022-12-05T23:30:35.652Z,92.45
2022-12-05T23:35:36.887Z,93.32
2022-12-05T23:40:38.035Z,92.90
2022-12-05T23:45:40.162Z,92.22
2022-12-05T23:50:39.407Z,92.53
2022-12-05T23:55:40.572Z,92.36
